createdAt,value
2023-02-16T00:02:05.175Z,101653.53
2023-02-16T00:07:08.598Z,101657.09
2023-02-16T00:12:38.040Z,101651.19
2023-02-16T00:17:41.479Z,101650.41
2023-02-16T00:22:44.927Z,101654.00
2023-02-16T00:27:49.735Z,101643.94
2023-02-16T00:32:54.444Z,101635.97
2023-02-16T00:37:57.854Z,101626.13
2023-02-16T00:43:02.643Z,101627.41
2023-02-16T00:48:06.393Z,101633.59
2023-02-16T00:53:11.532Z,101635.09
2023-02-16T00:58:22.311Z,101621.88
2023-02-16T01:03:28.395Z,101626.72
2023-02-16T01:08:49.156Z,101621.09
2023-02-16T01:13:55.259Z,101633.63
2023-02-16T01:18:58.699Z,101622.03
2023-02-16T01:24:02.142Z,101614.69
2023-02-16T01:29:06.975Z,101604.16
2023-02-16T01:34:10.471Z,101606.38
2023-02-16T01:39:14.638Z,101605.81
2023-02-16T01:44:25.749Z,101614.78
2023-02-16T01:49:30.441Z,101609.91
2023-02-16T01:54:37.413Z,101601.06
2023-02-16T02:00:06.321Z,101600.59
2023-02-16T02:05:36.414Z,101592.09
2023-02-16T02:10:47.334Z,101583.50
2023-02-16T02:15:52.727Z,101588.13
2023-02-16T02:21:26.999Z,101573.94
2023-02-16T02:27:18.952Z,101573.13
2023-02-16T02:32:30.736Z,101587.75
2023-02-16T02:37:44.356Z,101583.25
2023-02-16T02:42:54.664Z,101587.91
2023-02-16T02:47:59.749Z,101582.63
2023-02-16T02:53:08.691Z,101585.41
2023-02-16T02:58:30.708Z,101581.94
2023-02-16T03:03:39.427Z,101567.47
2023-02-16T03:08:46.071Z,101573.63
2023-02-16T03:13:52.457Z,101590.25
2023-02-16T03:19:15.742Z,101590.75
2023-02-16T03:24:41.284Z,101581.63
2023-02-16T03:29:46.699Z,101586.72
2023-02-16T03:34:51.503Z,101581.16
2023-02-16T03:40:12.946Z,101582.41
2023-02-16T03:45:16.572Z,101589.22
2023-02-16T03:50:21.511Z,101580.00
2023-02-16T03:55:24.880Z,101579.44
2023-02-16T04:00:28.664Z,101572.25
2023-02-16T04:05:34.168Z,101574.16
2023-02-16T04:10:38.317Z,101571.03
2023-02-16T04:15:42.208Z,101567.03
2023-02-16T04:20:46.996Z,101563.16
2023-02-16T04:25:50.461Z,101572.69
2023-02-16T04:30:53.934Z,101569.78
2023-02-16T04:35:58.659Z,101566.56
2023-02-16T04:41:02.264Z,101558.28
2023-02-16T04:46:06.192Z,101551.22
2023-02-16T04:51:11.049Z,101547.16
2023-02-16T04:56:14.479Z,101533.88
2023-02-16T05:01:21.806Z,101532.75
2023-02-16T05:06:27.832Z,101533.22
2023-02-16T05:11:48.703Z,101525.72
2023-02-16T05:16:52.262Z,101526.31
2023-02-16T05:21:56.964Z,101536.91
2023-02-16T05:27:00.345Z,101539.09
2023-02-16T05:32:04.843Z,101554.25
2023-02-16T05:37:09.723Z,101555.66
2023-02-16T05:42:13.436Z,101541.03
2023-02-16T05:47:16.891Z,101543.44
2023-02-16T05:52:21.651Z,101550.13
2023-02-16T05:57:25.064Z,101540.81
2023-02-16T06:02:28.451Z,101549.47
2023-02-16T06:07:33.234Z,101561.22
2023-02-16T06:12:36.682Z,101559.38
2023-02-16T06:17:40.148Z,101562.81
2023-02-16T06:22:44.879Z,101555.75
2023-02-16T06:27:49.974Z,101551.75
2023-02-16T06:32:53.437Z,101554.81
2023-02-16T06:37:59.062Z,101544.75
2023-02-16T06:43:02.814Z,101543.53
2023-02-16T06:48:06.306Z,101548.19
2023-02-16T06:53:11.021Z,101542.69
2023-02-16T06:58:14.442Z,101555.59
2023-02-16T07:03:17.863Z,101560.81
2023-02-16T07:08:23.486Z,101565.66
2023-02-16T07:13:27.019Z,101565.91
2023-02-16T07:18:30.428Z,101574.72
2023-02-16T07:23:35.409Z,101575.75
2023-02-16T07:28:39.040Z,101572.00
2023-02-16T07:33:42.912Z,101564.25
2023-02-16T07:38:47.722Z,101564.25
2023-02-16T07:43:51.159Z,101559.69
2023-02-16T07:48:54.573Z,101563.31
2023-02-16T07:54:00.846Z,101565.97
2023-02-16T07:59:04.858Z,101581.94
2023-02-16T08:04:08.277Z,101566.34
2023-02-16T08:09:13.101Z,101575.88
2023-02-16T08:14:19.431Z,101579.53
2023-02-16T08:19:22.895Z,101570.72
2023-02-16T08:24:28.002Z,101576.13
2023-02-16T08:29:31.706Z,101582.41
2023-02-16T08:34:35.892Z,101583.31
2023-02-16T08:39:41.407Z,101574.91
2023-02-16T08:44:45.231Z,101563.84
2023-02-16T08:49:48.665Z,101570.06
2023-02-16T08:54:53.942Z,101561.19
2023-02-16T09:00:11.313Z,101542.03
2023-02-16T09:05:14.798Z,101534.66
2023-02-16T09:10:22.323Z,101533.22
2023-02-16T09:15:25.800Z,101524.13
2023-02-16T09:20:29.563Z,101535.69
2023-02-16T09:25:37.000Z,101542.69
2023-02-16T09:30:40.808Z,101544.66
2023-02-16T09:35:44.677Z,101558.03
2023-02-16T09:40:57.617Z,101552.53
2023-02-16T09:46:02.806Z,101558.50
2023-02-16T09:51:08.367Z,101548.72
2023-02-16T09:56:20.205Z,101549.72
2023-02-16T10:01:32.157Z,101564.56
2023-02-16T10:06:48.117Z,101555.44
2023-02-16T10:11:56.415Z,101561.59
2023-02-16T10:17:07.725Z,101559.53
2023-02-16T10:22:17.590Z,101558.97
2023-02-16T10:27:22.912Z,101577.69
2023-02-16T10:32:29.256Z,101553.25
2023-02-16T10:37:44.202Z,101544.47
2023-02-16T10:42:53.464Z,101530.28
2023-02-16T10:47:57.017Z,101529.09
2023-02-16T10:53:02.718Z,101548.03
2023-02-16T10:58:16.498Z,101542.13
2023-02-16T11:03:25.548Z,101539.91
2023-02-16T11:08:50.925Z,101545.91
2023-02-16T11:14:01.471Z,101544.56
2023-02-16T11:19:08.742Z,101537.38
2023-02-16T11:24:14.876Z,101539.53
2023-02-16T11:29:21.500Z,101533.91
2023-02-16T11:34:31.464Z,101528.47
2023-02-16T11:39:38.620Z,101531.38
2023-02-16T11:44:46.938Z,101524.13
2023-02-16T11:49:51.754Z,101527.41
2023-02-16T11:54:58.556Z,101513.91
2023-02-16T12:00:14.838Z,101517.59
2023-02-16T12:05:26.433Z,101517.50
2023-02-16T12:10:32.528Z,101514.09
2023-02-16T12:15:42.341Z,101509.50
2023-02-16T12:20:53.139Z,101529.47
2023-02-16T12:26:09.919Z,101507.47
2023-02-16T12:31:22.480Z,101502.72
2023-02-16T12:36:34.363Z,101493.50
2023-02-16T12:41:45.827Z,101494.00
2023-02-16T12:46:53.024Z,101472.13
2023-02-16T12:52:02.017Z,101458.59
2023-02-16T12:57:08.416Z,101475.53
2023-02-16T13:02:16.321Z,101478.69
2023-02-16T13:07:24.869Z,101470.00
2023-02-16T13:12:33.105Z,101462.13
2023-02-16T13:17:41.365Z,101455.28
2023-02-16T13:23:13.092Z,101463.19
2023-02-16T13:28:33.834Z,101459.13
2023-02-16T13:33:53.032Z,101451.16
2023-02-16T13:39:19.595Z,101442.75
2023-02-16T13:44:25.540Z,101435.88
2023-02-16T13:49:33.758Z,101439.25
2023-02-16T13:54:39.922Z,101430.72
2023-02-16T13:59:59.329Z,101417.88
2023-02-16T14:05:11.994Z,101428.13
2023-02-16T14:10:15.693Z,101411.72
2023-02-16T14:15:21.844Z,101398.06
2023-02-16T14:20:29.924Z,101396.78
2023-02-16T14:25:39.934Z,101394.66
2023-02-16T14:30:55.694Z,101380.63
2023-02-16T14:36:09.358Z,101379.31
2023-02-16T14:41:15.865Z,101378.66
2023-02-16T14:46:27.993Z,101377.50
2023-02-16T14:51:45.423Z,101395.66
2023-02-16T14:56:50.782Z,101381.38
2023-02-16T15:01:54.422Z,101363.25
2023-02-16T15:07:01.305Z,101382.84
2023-02-16T15:12:25.587Z,101382.63
2023-02-16T15:17:31.842Z,101386.22
2023-02-16T15:22:39.820Z,101388.22
2023-02-16T15:27:53.745Z,101379.13
2023-02-16T15:32:58.819Z,101381.06
2023-02-16T15:38:10.699Z,101375.84
2023-02-16T15:43:21.086Z,101367.03
2023-02-16T15:48:30.669Z,101368.38
2023-02-16T15:53:39.071Z,101370.47
2023-02-16T15:58:42.955Z,101364.28
2023-02-16T16:03:46.653Z,101370.28
2023-02-16T16:08:51.915Z,101372.28
2023-02-16T16:13:55.625Z,101369.69
2023-02-16T16:19:07.429Z,101364.84
2023-02-16T16:24:12.774Z,101362.94
2023-02-16T16:29:31.837Z,101369.75
2023-02-16T16:34:37.141Z,101352.97
2023-02-16T16:39:42.152Z,101362.53
2023-02-16T16:44:54.007Z,101360.00
2023-02-16T16:49:58.778Z,101373.75
2023-02-16T16:55:21.381Z,101371.69
2023-02-16T17:00:27.703Z,101375.44
2023-02-16T17:05:31.196Z,101382.31
2023-02-16T17:10:36.671Z,101378.91
2023-02-16T17:15:43.537Z,101373.50
2023-02-16T17:20:47.306Z,101372.00
2023-02-16T17:25:52.595Z,101371.25
2023-02-16T17:30:56.121Z,101360.94
2023-02-16T17:36:00.168Z,101366.06
2023-02-16T17:41:05.323Z,101353.38
2023-02-16T17:46:09.017Z,101350.72
2023-02-16T17:51:16.392Z,101330.03
2023-02-16T17:56:22.888Z,101327.75
2023-02-16T18:01:26.495Z,101328.41
2023-02-16T18:06:30.582Z,101318.72
2023-02-16T18:11:35.500Z,101326.66
2023-02-16T18:16:39.344Z,101335.41
2023-02-16T18:21:43.137Z,101342.06
2023-02-16T18:26:48.054Z,101312.59
2023-02-16T18:31:52.100Z,101319.09
2023-02-16T18:36:55.620Z,101321.75
2023-02-16T18:42:00.456Z,101327.59
2023-02-16T18:47:04.093Z,101326.00
2023-02-16T18:52:07.628Z,101322.06
2023-02-16T18:57:12.587Z,101317.50
2023-02-16T19:02:16.595Z,101312.09
2023-02-16T19:07:20.321Z,101298.69
2023-02-16T19:12:25.404Z,101298.91
2023-02-16T19:17:29.164Z,101299.91
2023-02-16T19:22:33.651Z,101302.91
2023-02-16T19:27:38.841Z,101301.88
2023-02-16T19:32:42.537Z,101300.97
2023-02-16T19:37:46.802Z,101288.63
2023-02-16T19:42:51.985Z,101285.94
2023-02-16T19:47:55.811Z,101268.41
2023-02-16T19:52:59.446Z,101258.34
2023-02-16T19:58:04.347Z,101251.50
2023-02-16T20:03:07.893Z,101249.72
2023-02-16T20:08:11.560Z,101249.81
2023-02-16T20:13:16.420Z,101260.78
2023-02-16T20:18:19.967Z,101245.63
2023-02-16T20:23:23.502Z,101252.59
2023-02-16T20:28:28.780Z,101248.56
2023-02-16T20:33:32.417Z,101244.16
2023-02-16T20:38:36.093Z,101251.00
2023-02-16T20:43:41.196Z,101266.94
2023-02-16T20:48:44.896Z,101254.00
2023-02-16T20:53:48.789Z,101248.94
2023-02-16T20:58:55.494Z,101264.00
2023-02-16T21:04:00.555Z,101250.47
2023-02-16T21:09:04.532Z,101246.56
2023-02-16T21:14:11.738Z,101245.03
2023-02-16T21:19:22.757Z,101231.44
2023-02-16T21:24:26.684Z,101231.19
2023-02-16T21:29:31.826Z,101216.16
2023-02-16T21:34:35.332Z,101214.22
2023-02-16T21:39:56.376Z,101212.69
2023-02-16T21:45:13.571Z,101213.41
2023-02-16T21:50:17.875Z,101207.88
2023-02-16T21:55:39.296Z,101199.88
2023-02-16T22:00:54.724Z,101195.44
2023-02-16T22:06:02.302Z,101188.63
2023-02-16T22:11:07.238Z,101184.19
2023-02-16T22:16:14.122Z,101180.22
2023-02-16T22:21:18.246Z,101173.88
2023-02-16T22:26:24.480Z,101173.41
2023-02-16T22:31:29.507Z,101166.41
2023-02-16T22:36:33.649Z,101159.81
2023-02-16T22:41:37.309Z,101162.16
2023-02-16T22:46:42.476Z,101179.16
2023-02-16T22:51:45.951Z,101162.16
2023-02-16T22:56:49.496Z,101143.22
2023-02-16T23:01:54.328Z,101145.47
2023-02-16T23:06:57.815Z,101148.38
2023-02-16T23:12:01.406Z,101137.94
2023-02-16T23:17:06.176Z,101153.88
2023-02-16T23:22:09.632Z,101141.50
2023-02-16T23:27:13.104Z,101135.63
2023-02-16T23:32:18.000Z,101124.31
2023-02-16T23:37:21.613Z,101121.56
2023-02-16T23:42:25.023Z,101126.66
2023-02-16T23:47:29.839Z,101112.75
2023-02-16T23:52:33.329Z,101100.44
2023-02-16T23:57:36.934Z,101093.25
